createdAt,value
2017-08-08T20:56:49.097Z,4.93
2017-08-08T20:59:17.177Z,5.33
2017-08-08T21:01:45.261Z,5.60
2017-08-08T21:04:13.335Z,5.50
2017-08-08T21:06:42.168Z,5.97
2017-08-08T21:09:10.248Z,5.60
2017-08-08T21:11:38.316Z,5.20
2017-08-08T21:14:06.400Z,5.50
2017-08-08T21:16:34.461Z,8.30
2017-08-08T21:19:02.590Z,5.07
2017-08-08T21:21:30.683Z,7.13
2017-08-08T21:23:58.755Z,5.03
2017-08-08T21:26:26.833Z,5.43
2017-08-08T21:28:54.895Z,5.57
2017-08-08T21:31:22.994Z,5.10
2017-08-08T21:33:51.067Z,5.40
2017-08-08T21:36:19.136Z,6.13
2017-08-08T21:38:47.219Z,5.17
2017-08-08T21:41:15.287Z,6.00
2017-08-08T21:43:43.374Z,5.90
2017-08-08T21:46:11.450Z,5.47
2017-08-08T21:48:39.553Z,5.83
2017-08-08T21:51:07.617Z,5.50
2017-08-08T21:53:35.686Z,5.87
2017-08-08T21:56:03.777Z,6.50
2017-08-08T21:58:32.226Z,7.20
2017-08-08T22:01:00.437Z,6.97
2017-08-08T22:03:29.262Z,6.80
2017-08-08T22:05:57.363Z,8.93
2017-08-08T22:08:25.431Z,8.07
2017-08-08T22:10:53.502Z,7.90
2017-08-08T22:13:21.574Z,8.60
2017-08-08T22:15:49.639Z,9.23
2017-08-08T22:18:18.445Z,7.70
2017-08-08T22:20:46.507Z,7.70
2017-08-08T22:23:14.620Z,7.30
2017-08-08T22:25:43.478Z,8.10
2017-08-08T22:28:11.545Z,8.00
2017-08-08T22:30:39.622Z,6.83
2017-08-08T22:33:07.687Z,7.77
2017-08-08T22:35:35.839Z,7.40
2017-08-08T22:38:03.996Z,7.73
2017-08-08T22:40:32.051Z,7.97
2017-08-08T22:43:00.898Z,7.80
2017-08-08T22:45:28.973Z,11.03
2017-08-08T22:47:57.059Z,7.27
2017-08-08T22:50:25.147Z,7.00
2017-08-08T22:52:53.989Z,7.60
2017-08-08T22:55:22.059Z,7.30
2017-08-08T22:57:50.127Z,7.90
2017-08-08T23:00:18.199Z,8.60
2017-08-08T23:02:46.271Z,7.30
2017-08-08T23:05:15.116Z,7.23
2017-08-08T23:07:43.206Z,7.47
2017-08-08T23:10:11.271Z,7.23
2017-08-08T23:12:39.379Z,6.53
2017-08-08T23:15:07.446Z,7.30
2017-08-08T23:17:35.775Z,6.90
2017-08-08T23:20:03.842Z,6.17
2017-08-08T23:22:32.918Z,8.30
2017-08-08T23:25:00.991Z,7.33
2017-08-08T23:27:29.065Z,6.10
2017-08-08T23:29:57.138Z,6.27
2017-08-08T23:32:25.247Z,6.10
2017-08-08T23:34:54.087Z,5.60
2017-08-08T23:37:27.610Z,4.80
2017-08-08T23:39:55.698Z,5.27
2017-08-08T23:42:23.767Z,5.20
2017-08-08T23:44:51.842Z,4.77
2017-08-08T23:47:19.917Z,5.30
2017-08-08T23:49:47.995Z,6.90
2017-08-08T23:52:16.831Z,6.63
2017-08-08T23:54:44.908Z,6.10
2017-08-08T23:57:13.010Z,5.77
2017-08-08T23:59:41.072Z,6.93
